sensor_id;sensor_type;location;lat;lon;timestamp;P1;durP1;ratioP1;P2;durP2;ratioP2
51020;SDS011;38907;45.562;8.856;2023-03-20T00:00:43;65.35;;;40.50;;
51020;SDS011;38907;45.562;8.856;2023-03-20T00:05:47;65.13;;;39.33;;
51020;SDS011;38907;45.562;8.856;2023-03-20T00:15:53;57.70;;;36.92;;
51020;SDS011;38907;45.562;8.856;2023-03-20T00:20:55;63.72;;;38.55;;
51020;SDS011;38907;45.562;8.856;2023-03-20T00:25:58;51.83;;;34.42;;
51020;SDS011;38907;45.562;8.856;2023-03-20T00:31:00;57.38;;;36.55;;
51020;SDS011;38907;45.562;8.856;2023-03-20T00:36:03;51.97;;;34.42;;
51020;SDS011;38907;45.562;8.856;2023-03-20T00:41:11;57.83;;;36.53;;
51020;SDS011;38907;45.562;8.856;2023-03-20T00:46:22;57.22;;;36.00;;
51020;SDS011;38907;45.562;8.856;2023-03-20T00:51:24;54.40;;;37.28;;
51020;SDS011;38907;45.562;8.856;2023-03-20T00:56:29;58.65;;;36.35;;
51020;SDS011;38907;45.562;8.856;2023-03-20T01:01:33;59.20;;;36.67;;
51020;SDS011;38907;45.562;8.856;2023-03-20T01:06:35;58.28;;;37.20;;
51020;SDS011;38907;45.562;8.856;2023-03-20T01:11:38;55.35;;;36.50;;
51020;SDS011;38907;45.562;8.856;2023-03-20T01:16:41;63.38;;;41.33;;
51020;SDS011;38907;45.562;8.856;2023-03-20T01:21:43;61.08;;;38.50;;
51020;SDS011;38907;45.562;8.856;2023-03-20T01:26:46;70.57;;;38.65;;
51020;SDS011;38907;45.562;8.856;2023-03-20T01:31:48;52.20;;;35.05;;
51020;SDS011;38907;45.562;8.856;2023-03-20T01:36:51;60.40;;;37.22;;
51020;SDS011;38907;45.562;8.856;2023-03-20T01:41:56;60.78;;;37.30;;
51020;SDS011;38907;45.562;8.856;2023-03-20T01:46:58;53.88;;;36.38;;
51020;SDS011;38907;45.562;8.856;2023-03-20T01:52:01;52.85;;;34.90;;
51020;SDS011;38907;45.562;8.856;2023-03-20T01:57:06;58.08;;;36.70;;
51020;SDS011;38907;45.562;8.856;2023-03-20T02:02:10;56.47;;;37.15;;
51020;SDS011;38907;45.562;8.856;2023-03-20T02:07:15;57.35;;;38.67;;
51020;SDS011;38907;45.562;8.856;2023-03-20T02:12:20;67.38;;;40.80;;
51020;SDS011;38907;45.562;8.856;2023-03-20T02:17:22;63.38;;;37.75;;
51020;SDS011;38907;45.562;8.856;2023-03-20T02:28:24;67.82;;;39.53;;
51020;SDS011;38907;45.562;8.856;2023-03-20T02:33:50;60.67;;;38.28;;
51020;SDS011;38907;45.562;8.856;2023-03-20T02:39:24;63.03;;;39.00;;
51020;SDS011;38907;45.562;8.856;2023-03-20T02:44:44;61.67;;;36.78;;
51020;SDS011;38907;45.562;8.856;2023-03-20T02:49:53;65.93;;;38.78;;
51020;SDS011;38907;45.562;8.856;2023-03-20T02:55:03;55.50;;;36.35;;
51020;SDS011;38907;45.562;8.856;2023-03-20T03:00:14;57.17;;;36.08;;
51020;SDS011;38907;45.562;8.856;2023-03-20T03:05:24;55.22;;;35.45;;
51020;SDS011;38907;45.562;8.856;2023-03-20T03:10:35;62.03;;;38.03;;
51020;SDS011;38907;45.562;8.856;2023-03-20T03:15:41;65.38;;;37.08;;
51020;SDS011;38907;45.562;8.856;2023-03-20T03:20:46;58.03;;;37.17;;
51020;SDS011;38907;45.562;8.856;2023-03-20T03:25:51;59.15;;;37.38;;
51020;SDS011;38907;45.562;8.856;2023-03-20T03:30:55;57.97;;;36.42;;
51020;SDS011;38907;45.562;8.856;2023-03-20T03:41:09;56.00;;;33.35;;
51020;SDS011;38907;45.562;8.856;2023-03-20T03:46:21;52.90;;;33.97;;
51020;SDS011;38907;45.562;8.856;2023-03-20T03:51:30;53.78;;;32.40;;
51020;SDS011;38907;45.562;8.856;2023-03-20T03:56:36;59.20;;;35.45;;
51020;SDS011;38907;45.562;8.856;2023-03-20T04:01:41;49.17;;;33.38;;
51020;SDS011;38907;45.562;8.856;2023-03-20T04:06:43;54.07;;;34.80;;
51020;SDS011;38907;45.562;8.856;2023-03-20T04:11:48;54.63;;;33.75;;
51020;SDS011;38907;45.562;8.856;2023-03-20T04:16:52;56.55;;;34.22;;
51020;SDS011;38907;45.562;8.856;2023-03-20T04:21:54;57.15;;;34.08;;
51020;SDS011;38907;45.562;8.856;2023-03-20T04:26:57;53.00;;;33.50;;
51020;SDS011;38907;45.562;8.856;2023-03-20T04:31:59;57.58;;;35.55;;
51020;SDS011;38907;45.562;8.856;2023-03-20T04:37:01;56.60;;;34.55;;
51020;SDS011;38907;45.562;8.856;2023-03-20T04:42:05;60.97;;;36.22;;
51020;SDS011;38907;45.562;8.856;2023-03-20T04:47:07;60.72;;;37.20;;
51020;SDS011;38907;45.562;8.856;2023-03-20T04:52:09;54.03;;;34.28;;
51020;SDS011;38907;45.562;8.856;2023-03-20T04:57:12;58.03;;;36.20;;
51020;SDS011;38907;45.562;8.856;2023-03-20T05:02:15;54.28;;;34.70;;
51020;SDS011;38907;45.562;8.856;2023-03-20T05:07:17;60.75;;;35.45;;
51020;SDS011;38907;45.562;8.856;2023-03-20T05:12:21;52.42;;;33.05;;
51020;SDS011;38907;45.562;8.856;2023-03-20T05:17:23;57.17;;;34.17;;
51020;SDS011;38907;45.562;8.856;2023-03-20T05:22:25;51.70;;;33.20;;
51020;SDS011;38907;45.562;8.856;2023-03-20T05:27:28;57.70;;;34.10;;
51020;SDS011;38907;45.562;8.856;2023-03-20T05:32:30;48.45;;;32.95;;
51020;SDS011;38907;45.562;8.856;2023-03-20T05:37:35;55.67;;;34.97;;
51020;SDS011;38907;45.562;8.856;2023-03-20T05:42:38;51.88;;;33.03;;
51020;SDS011;38907;45.562;8.856;2023-03-20T05:47:40;58.47;;;33.53;;
51020;SDS011;38907;45.562;8.856;2023-03-20T05:52:42;55.35;;;34.30;;
51020;SDS011;38907;45.562;8.856;2023-03-20T05:57:48;52.08;;;33.25;;
51020;SDS011;38907;45.562;8.856;2023-03-20T06:02:50;52.47;;;34.03;;
51020;SDS011;38907;45.562;8.856;2023-03-20T06:07:52;56.92;;;33.35;;
51020;SDS011;38907;45.562;8.856;2023-03-20T06:12:55;50.53;;;30.05;;
51020;SDS011;38907;45.562;8.856;2023-03-20T06:17:59;54.65;;;33.50;;
51020;SDS011;38907;45.562;8.856;2023-03-20T06:23:01;51.22;;;32.65;;
51020;SDS011;38907;45.562;8.856;2023-03-20T06:28:05;58.55;;;34.25;;
51020;SDS011;38907;45.562;8.856;2023-03-20T06:38:09;62.67;;;34.05;;
51020;SDS011;38907;45.562;8.856;2023-03-20T06:43:12;58.17;;;35.78;;
51020;SDS011;38907;45.562;8.856;2023-03-20T06:48:14;57.63;;;35.65;;
51020;SDS011;38907;45.562;8.856;2023-03-20T06:53:20;57.85;;;35.38;;
51020;SDS011;38907;45.562;8.856;2023-03-20T06:58:24;60.42;;;37.67;;
51020;SDS011;38907;45.562;8.856;2023-03-20T07:03:26;64.40;;;40.55;;
51020;SDS011;38907;45.562;8.856;2023-03-20T07:08:29;63.45;;;37.38;;
51020;SDS011;38907;45.562;8.856;2023-03-20T07:13:32;67.05;;;42.75;;
51020;SDS011;38907;45.562;8.856;2023-03-20T07:18:34;78.68;;;44.60;;
51020;SDS011;38907;45.562;8.856;2023-03-20T07:23:36;72.63;;;46.17;;
51020;SDS011;38907;45.562;8.856;2023-03-20T07:28:39;94.93;;;62.08;;
51020;SDS011;38907;45.562;8.856;2023-03-20T07:33:41;73.07;;;43.03;;
51020;SDS011;38907;45.562;8.856;2023-03-20T07:38:42;66.75;;;42.00;;
51020;SDS011;38907;45.562;8.856;2023-03-20T07:43:46;60.67;;;39.72;;
51020;SDS011;38907;45.562;8.856;2023-03-20T07:48:47;53.33;;;34.70;;
51020;SDS011;38907;45.562;8.856;2023-03-20T07:53:49;41.60;;;28.38;;
51020;SDS011;38907;45.562;8.856;2023-03-20T07:58:52;40.63;;;25.00;;
51020;SDS011;38907;45.562;8.856;2023-03-20T08:03:54;39.00;;;24.88;;
51020;SDS011;38907;45.562;8.856;2023-03-20T08:08:56;41.45;;;26.05;;
51020;SDS011;38907;45.562;8.856;2023-03-20T08:13:59;35.75;;;24.20;;
51020;SDS011;38907;45.562;8.856;2023-03-20T08:19:01;37.95;;;25.45;;
51020;SDS011;38907;45.562;8.856;2023-03-20T08:24:04;33.00;;;22.27;;
51020;SDS011;38907;45.562;8.856;2023-03-20T08:29:08;41.90;;;21.60;;
51020;SDS011;38907;45.562;8.856;2023-03-20T08:34:11;35.80;;;22.65;;
51020;SDS011;38907;45.562;8.856;2023-03-20T08:39:13;33.88;;;22.23;;
51020;SDS011;38907;45.562;8.856;2023-03-20T08:44:16;34.70;;;20.85;;
51020;SDS011;38907;45.562;8.856;2023-03-20T08:49:18;33.75;;;20.13;;
51020;SDS011;38907;45.562;8.856;2023-03-20T08:54:20;29.20;;;18.48;;
51020;SDS011;38907;45.562;8.856;2023-03-20T08:59:24;27.60;;;19.13;;
51020;SDS011;38907;45.562;8.856;2023-03-20T09:04:26;34.70;;;21.70;;
51020;SDS011;38907;45.562;8.856;2023-03-20T09:09:28;37.42;;;21.27;;
51020;SDS011;38907;45.562;8.856;2023-03-20T09:14:31;30.75;;;21.15;;
51020;SDS011;38907;45.562;8.856;2023-03-20T09:19:33;37.28;;;22.73;;
51020;SDS011;38907;45.562;8.856;2023-03-20T09:24:38;31.15;;;22.33;;
51020;SDS011;38907;45.562;8.856;2023-03-20T09:29:41;36.22;;;21.52;;
51020;SDS011;38907;45.562;8.856;2023-03-20T09:34:44;28.98;;;19.80;;
51020;SDS011;38907;45.562;8.856;2023-03-20T09:39:45;31.20;;;20.55;;
51020;SDS011;38907;45.562;8.856;2023-03-20T09:44:51;32.10;;;21.55;;
51020;SDS011;38907;45.562;8.856;2023-03-20T09:50:07;31.67;;;19.38;;
51020;SDS011;38907;45.562;8.856;2023-03-20T09:55:22;34.83;;;20.38;;
51020;SDS011;38907;45.562;8.856;2023-03-20T10:00:31;34.72;;;21.73;;
51020;SDS011;38907;45.562;8.856;2023-03-20T10:05:36;35.83;;;23.77;;
51020;SDS011;38907;45.562;8.856;2023-03-20T10:10:45;39.67;;;25.25;;
51020;SDS011;38907;45.562;8.856;2023-03-20T10:15:53;43.38;;;28.15;;
51020;SDS011;38907;45.562;8.856;2023-03-20T10:21:01;42.25;;;27.85;;
51020;SDS011;38907;45.562;8.856;2023-03-20T10:26:08;37.78;;;27.23;;
51020;SDS011;38907;45.562;8.856;2023-03-20T10:31:19;41.15;;;27.80;;
51020;SDS011;38907;45.562;8.856;2023-03-20T10:36:32;39.15;;;26.13;;
51020;SDS011;38907;45.562;8.856;2023-03-20T10:41:43;39.10;;;27.58;;
51020;SDS011;38907;45.562;8.856;2023-03-20T10:46:52;37.17;;;25.60;;
51020;SDS011;38907;45.562;8.856;2023-03-20T10:51:57;39.35;;;26.85;;
51020;SDS011;38907;45.562;8.856;2023-03-20T10:57:04;37.10;;;25.90;;
51020;SDS011;38907;45.562;8.856;2023-03-20T11:02:10;38.85;;;25.95;;
51020;SDS011;38907;45.562;8.856;2023-03-20T11:07:13;40.92;;;27.42;;
51020;SDS011;38907;45.562;8.856;2023-03-20T11:12:23;39.88;;;27.50;;
51020;SDS011;38907;45.562;8.856;2023-03-20T11:17:28;41.67;;;26.42;;
51020;SDS011;38907;45.562;8.856;2023-03-20T11:22:30;34.47;;;24.90;;
51020;SDS011;38907;45.562;8.856;2023-03-20T11:27:32;38.78;;;26.60;;
51020;SDS011;38907;45.562;8.856;2023-03-20T11:32:38;36.88;;;25.77;;
51020;SDS011;38907;45.562;8.856;2023-03-20T11:37:42;36.60;;;25.95;;
51020;SDS011;38907;45.562;8.856;2023-03-20T11:47:54;39.50;;;26.23;;
51020;SDS011;38907;45.562;8.856;2023-03-20T11:52:57;37.50;;;25.83;;
51020;SDS011;38907;45.562;8.856;2023-03-20T11:58:02;35.15;;;26.08;;
51020;SDS011;38907;45.562;8.856;2023-03-20T12:03:14;37.60;;;25.88;;
51020;SDS011;38907;45.562;8.856;2023-03-20T12:08:42;37.38;;;24.85;;
51020;SDS011;38907;45.562;8.856;2023-03-20T12:13:48;33.55;;;24.38;;
51020;SDS011;38907;45.562;8.856;2023-03-20T12:18:53;32.67;;;24.38;;
51020;SDS011;38907;45.562;8.856;2023-03-20T12:23:58;35.88;;;24.83;;
51020;SDS011;38907;45.562;8.856;2023-03-20T12:29:04;38.95;;;26.50;;
51020;SDS011;38907;45.562;8.856;2023-03-20T12:34:13;39.10;;;26.25;;
51020;SDS011;38907;45.562;8.856;2023-03-20T12:39:19;38.90;;;25.83;;
51020;SDS011;38907;45.562;8.856;2023-03-20T12:44:28;53.58;;;26.35;;
51020;SDS011;38907;45.562;8.856;2023-03-20T12:49:40;34.30;;;24.70;;
51020;SDS011;38907;45.562;8.856;2023-03-20T12:55:05;36.70;;;25.30;;
51020;SDS011;38907;45.562;8.856;2023-03-20T13:00:15;34.53;;;25.40;;
51020;SDS011;38907;45.562;8.856;2023-03-20T13:05:34;40.42;;;25.75;;
51020;SDS011;38907;45.562;8.856;2023-03-20T13:10:45;34.30;;;24.95;;
51020;SDS011;38907;45.562;8.856;2023-03-20T13:15:56;38.10;;;27.08;;
51020;SDS011;38907;45.562;8.856;2023-03-20T13:21:05;34.38;;;25.10;;
51020;SDS011;38907;45.562;8.856;2023-03-20T13:26:13;40.55;;;27.80;;
51020;SDS011;38907;45.562;8.856;2023-03-20T13:36:57;41.65;;;27.83;;
51020;SDS011;38907;45.562;8.856;2023-03-20T13:42:08;36.35;;;25.83;;
51020;SDS011;38907;45.562;8.856;2023-03-20T13:47:16;39.03;;;26.52;;
51020;SDS011;38907;45.562;8.856;2023-03-20T13:52:21;39.20;;;26.65;;
51020;SDS011;38907;45.562;8.856;2023-03-20T13:57:40;45.38;;;28.08;;
51020;SDS011;38907;45.562;8.856;2023-03-20T14:13:38;35.47;;;25.52;;
51020;SDS011;38907;45.562;8.856;2023-03-20T14:18:46;45.13;;;27.88;;
51020;SDS011;38907;45.562;8.856;2023-03-20T14:23:56;38.72;;;26.95;;
51020;SDS011;38907;45.562;8.856;2023-03-20T14:34:21;40.30;;;27.05;;
51020;SDS011;38907;45.562;8.856;2023-03-20T14:39:28;42.35;;;27.27;;
51020;SDS011;38907;45.562;8.856;2023-03-20T14:44:45;37.55;;;26.20;;
51020;SDS011;38907;45.562;8.856;2023-03-20T14:49:56;37.67;;;27.77;;
51020;SDS011;38907;45.562;8.856;2023-03-20T14:55:14;38.95;;;27.10;;
51020;SDS011;38907;45.562;8.856;2023-03-20T15:00:33;39.47;;;27.50;;
51020;SDS011;38907;45.562;8.856;2023-03-20T15:05:44;36.72;;;27.15;;
51020;SDS011;38907;45.562;8.856;2023-03-20T15:10:49;38.92;;;26.80;;
51020;SDS011;38907;45.562;8.856;2023-03-20T15:15:54;39.58;;;27.10;;
51020;SDS011;38907;45.562;8.856;2023-03-20T15:20:57;43.13;;;27.70;;
51020;SDS011;38907;45.562;8.856;2023-03-20T15:26:00;41.47;;;27.52;;
51020;SDS011;38907;45.562;8.856;2023-03-20T15:31:04;39.53;;;27.80;;
51020;SDS011;38907;45.562;8.856;2023-03-20T15:41:22;43.63;;;26.73;;
51020;SDS011;38907;45.562;8.856;2023-03-20T15:46:26;37.95;;;27.92;;
51020;SDS011;38907;45.562;8.856;2023-03-20T15:51:28;41.65;;;28.40;;
51020;SDS011;38907;45.562;8.856;2023-03-20T15:56:31;39.97;;;28.33;;
51020;SDS011;38907;45.562;8.856;2023-03-20T16:01:33;39.60;;;27.25;;
51020;SDS011;38907;45.562;8.856;2023-03-20T16:06:35;41.63;;;27.10;;
51020;SDS011;38907;45.562;8.856;2023-03-20T16:11:48;38.88;;;27.05;;
51020;SDS011;38907;45.562;8.856;2023-03-20T16:16:57;38.03;;;26.55;;
51020;SDS011;38907;45.562;8.856;2023-03-20T16:22:01;41.17;;;26.25;;
51020;SDS011;38907;45.562;8.856;2023-03-20T16:27:13;37.90;;;26.35;;
51020;SDS011;38907;45.562;8.856;2023-03-20T16:32:32;39.20;;;27.25;;
51020;SDS011;38907;45.562;8.856;2023-03-20T16:37:36;39.30;;;26.90;;
51020;SDS011;38907;45.562;8.856;2023-03-20T16:42:44;41.60;;;26.92;;
51020;SDS011;38907;45.562;8.856;2023-03-20T16:47:47;37.95;;;27.00;;
51020;SDS011;38907;45.562;8.856;2023-03-20T16:52:50;38.65;;;25.25;;
51020;SDS011;38907;45.562;8.856;2023-03-20T16:57:58;37.15;;;26.58;;
51020;SDS011;38907;45.562;8.856;2023-03-20T17:03:10;40.30;;;26.95;;
51020;SDS011;38907;45.562;8.856;2023-03-20T17:08:15;41.10;;;27.00;;
51020;SDS011;38907;45.562;8.856;2023-03-20T17:13:25;45.78;;;27.48;;
51020;SDS011;38907;45.562;8.856;2023-03-20T17:18:27;40.63;;;26.45;;
51020;SDS011;38907;45.562;8.856;2023-03-20T17:23:30;45.85;;;27.40;;
51020;SDS011;38907;45.562;8.856;2023-03-20T17:28:34;39.80;;;27.90;;
51020;SDS011;38907;45.562;8.856;2023-03-20T17:33:36;48.03;;;29.20;;
51020;SDS011;38907;45.562;8.856;2023-03-20T17:38:38;43.17;;;27.25;;
51020;SDS011;38907;45.562;8.856;2023-03-20T17:43:41;42.10;;;28.15;;
51020;SDS011;38907;45.562;8.856;2023-03-20T17:48:43;49.22;;;27.67;;
51020;SDS011;38907;45.562;8.856;2023-03-20T17:53:45;43.88;;;29.88;;
51020;SDS011;38907;45.562;8.856;2023-03-20T17:58:49;45.45;;;29.75;;
51020;SDS011;38907;45.562;8.856;2023-03-20T18:03:51;43.13;;;29.85;;
51020;SDS011;38907;45.562;8.856;2023-03-20T18:08:53;53.92;;;32.50;;
51020;SDS011;38907;45.562;8.856;2023-03-20T18:13:57;43.88;;;30.17;;
51020;SDS011;38907;45.562;8.856;2023-03-20T18:19:01;45.95;;;31.15;;
51020;SDS011;38907;45.562;8.856;2023-03-20T18:24:03;46.75;;;30.75;;
51020;SDS011;38907;45.562;8.856;2023-03-20T18:29:08;47.90;;;31.23;;
51020;SDS011;38907;45.562;8.856;2023-03-20T18:34:11;50.08;;;29.58;;
51020;SDS011;38907;45.562;8.856;2023-03-20T18:39:14;48.88;;;32.15;;
51020;SDS011;38907;45.562;8.856;2023-03-20T18:44:19;44.00;;;30.58;;
51020;SDS011;38907;45.562;8.856;2023-03-20T18:49:22;44.38;;;28.95;;
51020;SDS011;38907;45.562;8.856;2023-03-20T18:54:24;50.53;;;29.75;;
51020;SDS011;38907;45.562;8.856;2023-03-20T18:59:27;52.00;;;31.38;;
51020;SDS011;38907;45.562;8.856;2023-03-20T19:04:29;61.30;;;32.92;;
51020;SDS011;38907;45.562;8.856;2023-03-20T19:09:31;55.47;;;33.40;;
51020;SDS011;38907;45.562;8.856;2023-03-20T19:14:35;51.45;;;31.27;;
51020;SDS011;38907;45.562;8.856;2023-03-20T19:19:36;51.55;;;30.02;;
51020;SDS011;38907;45.562;8.856;2023-03-20T19:24:38;58.55;;;33.38;;
51020;SDS011;38907;45.562;8.856;2023-03-20T19:29:41;59.55;;;35.90;;
51020;SDS011;38907;45.562;8.856;2023-03-20T19:34:43;61.17;;;37.58;;
51020;SDS011;38907;45.562;8.856;2023-03-20T19:39:45;58.92;;;35.38;;
51020;SDS011;38907;45.562;8.856;2023-03-20T19:44:48;61.83;;;35.58;;
51020;SDS011;38907;45.562;8.856;2023-03-20T19:49:50;62.75;;;36.45;;
51020;SDS011;38907;45.562;8.856;2023-03-20T19:54:52;58.10;;;34.97;;
51020;SDS011;38907;45.562;8.856;2023-03-20T19:59:55;66.15;;;39.88;;
51020;SDS011;38907;45.562;8.856;2023-03-20T20:04:57;61.42;;;37.97;;
51020;SDS011;38907;45.562;8.856;2023-03-20T20:09:59;68.65;;;39.05;;
51020;SDS011;38907;45.562;8.856;2023-03-20T20:15:03;63.00;;;38.03;;
51020;SDS011;38907;45.562;8.856;2023-03-20T20:20:06;63.40;;;40.83;;
51020;SDS011;38907;45.562;8.856;2023-03-20T20:25:09;69.20;;;42.50;;
51020;SDS011;38907;45.562;8.856;2023-03-20T20:30:14;65.55;;;40.92;;
51020;SDS011;38907;45.562;8.856;2023-03-20T20:35:18;79.20;;;45.72;;
51020;SDS011;38907;45.562;8.856;2023-03-20T20:45:25;79.10;;;47.20;;
51020;SDS011;38907;45.562;8.856;2023-03-20T20:50:29;77.97;;;47.97;;
51020;SDS011;38907;45.562;8.856;2023-03-20T20:55:32;90.82;;;54.92;;
51020;SDS011;38907;45.562;8.856;2023-03-20T21:00:35;94.70;;;55.95;;
51020;SDS011;38907;45.562;8.856;2023-03-20T21:05:37;90.10;;;53.70;;
51020;SDS011;38907;45.562;8.856;2023-03-20T21:10:42;91.88;;;53.30;;
51020;SDS011;38907;45.562;8.856;2023-03-20T21:15:46;79.45;;;48.50;;
51020;SDS011;38907;45.562;8.856;2023-03-20T21:21:02;78.70;;;47.25;;
51020;SDS011;38907;45.562;8.856;2023-03-20T21:26:05;72.78;;;45.80;;
51020;SDS011;38907;45.562;8.856;2023-03-20T21:31:09;76.60;;;47.25;;
51020;SDS011;38907;45.562;8.856;2023-03-20T21:36:21;79.47;;;48.70;;
51020;SDS011;38907;45.562;8.856;2023-03-20T21:41:23;75.10;;;46.97;;
51020;SDS011;38907;45.562;8.856;2023-03-20T21:46:26;76.82;;;47.95;;
51020;SDS011;38907;45.562;8.856;2023-03-20T21:51:28;79.13;;;47.13;;
51020;SDS011;38907;45.562;8.856;2023-03-20T21:56:29;75.93;;;47.50;;
51020;SDS011;38907;45.562;8.856;2023-03-20T22:01:33;77.50;;;45.47;;
51020;SDS011;38907;45.562;8.856;2023-03-20T22:11:36;78.72;;;46.67;;
51020;SDS011;38907;45.562;8.856;2023-03-20T22:16:40;71.70;;;46.50;;
51020;SDS011;38907;45.562;8.856;2023-03-20T22:21:42;86.28;;;53.85;;
51020;SDS011;38907;45.562;8.856;2023-03-20T22:26:44;87.37;;;50.13;;
51020;SDS011;38907;45.562;8.856;2023-03-20T22:31:47;81.47;;;48.08;;
51020;SDS011;38907;45.562;8.856;2023-03-20T22:41:52;83.57;;;52.28;;
51020;SDS011;38907;45.562;8.856;2023-03-20T22:46:55;100.13;;;57.55;;
51020;SDS011;38907;45.562;8.856;2023-03-20T22:51:57;90.32;;;51.15;;
51020;SDS011;38907;45.562;8.856;2023-03-20T22:57:00;82.10;;;51.25;;
51020;SDS011;38907;45.562;8.856;2023-03-20T23:02:03;83.80;;;50.85;;
51020;SDS011;38907;45.562;8.856;2023-03-20T23:12:07;87.93;;;50.50;;
51020;SDS011;38907;45.562;8.856;2023-03-20T23:17:10;87.72;;;51.88;;
51020;SDS011;38907;45.562;8.856;2023-03-20T23:22:12;87.75;;;54.42;;
51020;SDS011;38907;45.562;8.856;2023-03-20T23:27:13;81.82;;;50.67;;
51020;SDS011;38907;45.562;8.856;2023-03-20T23:32:19;92.22;;;55.38;;
51020;SDS011;38907;45.562;8.856;2023-03-20T23:37:21;92.60;;;53.38;;
51020;SDS011;38907;45.562;8.856;2023-03-20T23:42:23;88.47;;;52.47;;
51020;SDS011;38907;45.562;8.856;2023-03-20T23:47:26;86.25;;;52.72;;
51020;SDS011;38907;45.562;8.856;2023-03-20T23:52:28;84.78;;;51.83;;
51020;SDS011;38907;45.562;8.856;2023-03-20T23:57:30;91.03;;;52.80;;
